Ronald Reagan Washington National Airport
KDCA : now visible

Airfield :











YOU CAN JOIN US ON...

 
LOGIN :

Register | Disclaimer

   EN    FR    IT 

 









Legend :    VFR   Marginal VFR   IFR   Intensive IFR   Very Intensive IFR
Visi :
Ceiling :
>= 8 km
>= 3000ft
5 to 8 km
1000 to 3000 ft
1500m to 5 km
500 to 1000 ft
800 to 1500m
200 to 500 ft
< 800m
< 200 ft
Symbols :   Thunderstorms  Fog  Heavy snow  Heavy precipitations  Wind > 20 kt






- Airport Elevation : 15 ft
- IATA code : DCA


KDCA - Ronald Reagan Washington National

CURRENT METAR :
  • 041252Z 36014G19KT 9SM FEW020 OVC027 11/07 A3006 RMK AO2 SLP177 T01060067

EXPIRED METARs :
  • 041152Z 34011KT 10SM FEW015 OVC029 10/07 A3006 RMK AO2 SLP180 60006 70043 T01000072 10100 20094 56007
  • 041052Z 34011KT 10SM OVC032 10/07 A3006 RMK AO2 RAE38 SLP180 P0001 T01000067

TAF KDCA
Valid from the 04 at 12:00 until the 05 at 18:00 UTC


041136Z 0412/0518 34011KT P6SM VCSH OVC035
FM041300 36015G22KT 6SM -RA BR OVC025
FM041400 36015G25KT 5SM -RA BR OVC010
FM050600 35010G18KT 5SM -SHRA BR OVC010
FM051500 33011G18KT P6SM OVC025
KZDC FIR / North America



MET'MAP, your aeronautical weather chart ! - Copyright ORBIFLY December 2007 - Disclaimer

ORBIFLY MET'MAP TEAM :

Programming & Development : Alexandra Zaïnal
Original concept : Baudouin d'Aumeries
Technical & hardware support : Manuel Goepfert
Assistance : Marc-Olivier Méhu




SOURCES & CREDITS :

   NOAA       Earth
Advisory